createdAt,value
2019-05-23T00:00:01.954Z,1013.43
2019-05-23T00:01:01.962Z,1013.48
2019-05-23T00:02:01.981Z,1013.44
2019-05-23T00:03:01.982Z,1013.50
2019-05-23T00:04:01.983Z,1013.48
2019-05-23T00:06:02.017Z,1013.47
2019-05-23T00:07:02.001Z,1013.53
2019-05-23T00:08:02.031Z,1013.53
2019-05-23T00:09:02.054Z,1013.52
2019-05-23T00:10:02.032Z,1013.54
2019-05-23T00:11:02.038Z,1013.51
2019-05-23T00:12:02.044Z,1013.51
2019-05-23T00:13:02.058Z,1013.54
2019-05-23T00:14:02.059Z,1013.53
2019-05-23T00:15:02.311Z,1013.53
2019-05-23T00:16:02.116Z,1013.55
2019-05-23T00:17:02.084Z,1013.55
2019-05-23T00:18:02.099Z,1013.54
2019-05-23T00:19:02.101Z,1013.54
2019-05-23T00:20:02.110Z,1013.55
2019-05-23T00:21:02.116Z,1013.52
2019-05-23T00:22:02.128Z,1013.57
2019-05-23T00:23:02.127Z,1013.53
2019-05-23T00:24:02.173Z,1013.53
2019-05-23T00:25:02.164Z,1013.54
2019-05-23T00:26:02.307Z,1013.54
2019-05-23T00:27:02.167Z,1013.53
2019-05-23T00:28:02.168Z,1013.52
2019-05-23T00:29:10.089Z,1013.51
2019-05-23T00:30:02.177Z,1013.52
2019-05-23T00:31:02.191Z,1013.48
2019-05-23T00:32:02.194Z,1013.50
2019-05-23T00:33:02.204Z,1013.52
2019-05-23T00:34:02.221Z,1013.49
2019-05-23T00:35:02.229Z,1013.50
2019-05-23T00:36:02.279Z,1013.52
2019-05-23T00:37:02.242Z,1013.48
2019-05-23T00:38:02.247Z,1013.49
2019-05-23T00:39:02.258Z,1013.49
2019-05-23T00:40:02.255Z,1013.47
2019-05-23T00:41:02.272Z,1013.50
2019-05-23T00:42:02.270Z,1013.50
2019-05-23T00:43:02.283Z,1013.48
2019-05-23T00:44:02.331Z,1013.49
2019-05-23T00:45:02.305Z,1013.47
2019-05-23T00:46:02.315Z,1013.50
2019-05-23T00:47:02.311Z,1013.50
2019-05-23T00:48:02.326Z,1013.47
2019-05-23T00:49:02.336Z,1013.46
2019-05-23T00:50:02.331Z,1013.47
2019-05-23T00:51:39.015Z,1013.50
2019-05-23T00:52:02.354Z,1013.48
2019-05-23T00:53:02.357Z,1013.49
2019-05-23T00:54:02.437Z,1013.48
2019-05-23T00:55:02.376Z,1013.53
2019-05-23T00:56:02.379Z,1013.53
2019-05-23T00:57:02.388Z,1013.56
2019-05-23T00:58:02.391Z,1013.55
2019-05-23T00:59:02.402Z,1013.48
2019-05-23T01:00:02.412Z,1013.51
2019-05-23T01:01:02.418Z,1013.52
2019-05-23T01:02:02.424Z,1013.53
2019-05-23T01:03:02.430Z,1013.51
2019-05-23T01:04:02.501Z,1013.51
2019-05-23T01:05:02.446Z,1013.49
2019-05-23T01:06:02.469Z,1013.50
2019-05-23T01:07:02.460Z,1013.50
2019-05-23T01:08:02.478Z,1013.52
2019-05-23T01:09:02.472Z,1013.51
2019-05-23T01:10:02.480Z,1013.52
2019-05-23T01:11:02.483Z,1013.47
2019-05-23T01:12:02.499Z,1013.54
2019-05-23T01:13:02.509Z,1013.53
2019-05-23T01:14:02.505Z,1013.48
2019-05-23T01:15:02.522Z,1013.51
2019-05-23T01:16:02.524Z,1013.48
2019-05-23T01:17:02.590Z,1013.54
2019-05-23T01:18:02.536Z,1013.52
2019-05-23T01:19:02.547Z,1013.50
2019-05-23T01:20:02.554Z,1013.53
2019-05-23T01:21:02.557Z,1013.55
2019-05-23T01:22:02.567Z,1013.56
2019-05-23T01:23:02.575Z,1013.58
2019-05-23T01:24:02.588Z,1013.58
2019-05-23T01:25:02.582Z,1013.59
2019-05-23T01:26:02.643Z,1013.56
2019-05-23T01:27:02.612Z,1013.53
2019-05-23T01:28:02.606Z,1013.53
2019-05-23T01:29:02.615Z,1013.50
2019-05-23T01:30:02.621Z,1013.53
2019-05-23T01:31:02.630Z,1013.49
2019-05-23T01:32:02.652Z,1013.51
2019-05-23T01:33:02.653Z,1013.53
2019-05-23T01:34:02.648Z,1013.49
2019-05-23T01:35:02.659Z,1013.48
2019-05-23T01:36:02.662Z,1013.49
2019-05-23T01:37:02.672Z,1013.50
2019-05-23T01:38:04.292Z,1013.47
2019-05-23T01:39:02.689Z,1013.48
2019-05-23T01:40:02.690Z,1013.47
2019-05-23T01:41:02.695Z,1013.46
2019-05-23T01:42:02.697Z,1013.44
2019-05-23T01:43:02.713Z,1013.44
2019-05-23T01:44:02.720Z,1013.47
2019-05-23T01:45:02.723Z,1013.45
2019-05-23T01:46:02.731Z,1013.47
2019-05-23T01:47:02.746Z,1013.44
2019-05-23T01:48:02.746Z,1013.45
2019-05-23T01:49:02.755Z,1013.45
2019-05-23T01:50:02.757Z,1013.44
2019-05-23T01:51:02.765Z,1013.45
2019-05-23T01:52:02.775Z,1013.48
2019-05-23T01:53:02.782Z,1013.41
2019-05-23T01:54:02.788Z,1013.48
2019-05-23T01:55:02.868Z,1013.45
2019-05-23T01:56:02.807Z,1013.43
2019-05-23T01:57:02.815Z,1013.45
2019-05-23T01:58:02.819Z,1013.50
2019-05-23T01:59:02.820Z,1013.48
2019-05-23T02:00:10.401Z,1013.44
2019-05-23T02:01:02.835Z,1013.46
2019-05-23T02:02:02.838Z,1013.45
2019-05-23T02:03:02.853Z,1013.43
2019-05-23T02:04:02.864Z,1013.46
2019-05-23T02:05:02.909Z,1013.41
2019-05-23T02:06:02.872Z,1013.44
2019-05-23T02:07:02.902Z,1013.40
2019-05-23T02:08:02.900Z,1013.40
2019-05-23T02:09:02.890Z,1013.43
2019-05-23T02:10:02.911Z,1013.40
2019-05-23T02:11:02.905Z,1013.39
2019-05-23T02:12:02.922Z,1013.44
2019-05-23T02:13:02.936Z,1013.44
2019-05-23T02:14:02.929Z,1013.45
2019-05-23T02:15:02.933Z,1013.43
2019-05-23T02:16:02.944Z,1013.43
2019-05-23T02:17:02.949Z,1013.42
2019-05-23T02:18:03.035Z,1013.43
2019-05-23T02:19:02.966Z,1013.42
2019-05-23T02:20:02.987Z,1013.43
2019-05-23T02:21:03.015Z,1013.47
2019-05-23T02:22:02.983Z,1013.42
2019-05-23T02:23:02.989Z,1013.38
2019-05-23T02:24:02.993Z,1013.42
2019-05-23T02:25:03.005Z,1013.38
2019-05-23T02:26:03.013Z,1013.37
2019-05-23T02:27:03.028Z,1013.35
2019-05-23T02:28:03.027Z,1013.32
2019-05-23T02:29:03.030Z,1013.33
2019-05-23T02:30:03.037Z,1013.31
2019-05-23T02:31:03.039Z,1013.32
2019-05-23T02:32:03.052Z,1013.28
2019-05-23T02:33:03.121Z,1013.25
2019-05-23T02:34:03.056Z,1013.23
2019-05-23T02:35:03.066Z,1013.25
2019-05-23T02:36:03.072Z,1013.20
2019-05-23T02:37:03.080Z,1013.20
2019-05-23T02:38:03.095Z,1013.19
2019-05-23T02:39:03.095Z,1013.22
2019-05-23T02:40:03.091Z,1013.18
2019-05-23T02:41:03.109Z,1013.16
2019-05-23T02:42:03.124Z,1013.18
2019-05-23T02:43:03.277Z,1013.19
2019-05-23T02:44:03.128Z,1013.15
2019-05-23T02:45:03.133Z,1013.12
2019-05-23T02:46:03.153Z,1013.17
2019-05-23T02:47:03.147Z,1013.15
2019-05-23T02:48:03.154Z,1013.12
2019-05-23T02:49:03.189Z,1013.15
2019-05-23T02:50:03.166Z,1013.16
2019-05-23T02:51:03.177Z,1013.13
2019-05-23T02:52:03.184Z,1013.11
2019-05-23T02:53:03.190Z,1013.18
2019-05-23T02:54:03.200Z,1013.14
2019-05-23T02:55:03.204Z,1013.14
2019-05-23T02:56:03.274Z,1013.18
2019-05-23T02:57:03.228Z,1013.18
2019-05-23T02:58:03.227Z,1013.16
2019-05-23T02:59:03.228Z,1013.16
2019-05-23T03:00:03.235Z,1013.19
2019-05-23T03:01:03.240Z,1013.14
2019-05-23T03:02:03.245Z,1013.16
2019-05-23T03:03:03.259Z,1013.19
2019-05-23T03:04:03.250Z,1013.14
2019-05-23T03:05:03.263Z,1013.11
2019-05-23T03:06:03.270Z,1013.17
2019-05-23T03:07:03.285Z,1013.18
2019-05-23T03:08:03.286Z,1013.15
2019-05-23T03:09:03.297Z,1013.13
2019-05-23T03:10:03.308Z,1013.14
2019-05-23T03:11:03.306Z,1013.10
2019-05-23T03:12:03.309Z,1013.12
2019-05-23T03:13:03.316Z,1013.11
2019-05-23T03:14:03.319Z,1013.14
2019-05-23T03:15:03.328Z,1013.12
2019-05-23T03:16:03.345Z,1013.13
2019-05-23T03:17:03.338Z,1013.12
2019-05-23T03:18:03.347Z,1013.09
2019-05-23T03:19:03.381Z,1013.11
2019-05-23T03:20:03.365Z,1013.08
2019-05-23T03:21:03.455Z,1013.08
2019-05-23T03:22:03.373Z,1013.07
2019-05-23T03:23:03.383Z,1013.07
2019-05-23T03:24:03.455Z,1013.09
2019-05-23T03:25:03.394Z,1013.07
2019-05-23T03:26:03.402Z,1013.04
2019-05-23T03:27:03.404Z,1013.07
2019-05-23T03:28:03.405Z,1013.04
2019-05-23T03:29:03.422Z,1013.08
2019-05-23T03:30:03.430Z,1013.07
2019-05-23T03:31:27.375Z,1013.08
2019-05-23T03:32:03.440Z,1013.06
2019-05-23T03:33:03.444Z,1013.10
2019-05-23T03:34:03.450Z,1013.05
2019-05-23T03:35:03.458Z,1013.09
2019-05-23T03:36:03.467Z,1013.05
2019-05-23T03:37:03.507Z,1013.08
2019-05-23T03:38:03.475Z,1013.06
2019-05-23T03:39:03.488Z,1013.10
2019-05-23T03:40:03.487Z,1013.06
2019-05-23T03:41:03.498Z,1013.04
2019-05-23T03:42:03.513Z,1013.07
2019-05-23T03:43:03.518Z,1013.07
2019-05-23T03:44:03.506Z,1013.08
2019-05-23T03:45:03.527Z,1013.11
2019-05-23T03:46:03.552Z,1013.11
2019-05-23T03:47:03.705Z,1013.16
2019-05-23T03:48:03.541Z,1013.10
2019-05-23T03:49:03.545Z,1013.13
2019-05-23T03:50:03.555Z,1013.09
2019-05-23T03:51:03.569Z,1013.11
2019-05-23T03:52:03.568Z,1013.06
2019-05-23T03:53:03.573Z,1013.10
2019-05-23T03:54:03.588Z,1013.10
2019-05-23T03:55:03.590Z,1013.14
2019-05-23T03:56:03.595Z,1013.12
2019-05-23T03:57:03.606Z,1013.15
2019-05-23T03:58:03.604Z,1013.12
2019-05-23T03:59:03.613Z,1013.13
2019-05-23T04:00:03.626Z,1013.10
2019-05-23T04:01:03.639Z,1013.13
2019-05-23T04:02:03.648Z,1013.13
2019-05-23T04:03:03.788Z,1013.10
2019-05-23T04:04:03.650Z,1013.10
2019-05-23T04:05:03.711Z,1013.11
2019-05-23T04:06:03.654Z,1013.09
2019-05-23T04:07:03.667Z,1013.08
2019-05-23T04:08:03.696Z,1013.10
2019-05-23T04:09:03.699Z,1013.11
2019-05-23T04:10:03.678Z,1013.06
2019-05-23T04:11:03.688Z,1013.09
2019-05-23T04:12:03.702Z,1013.06
2019-05-23T04:13:03.707Z,1013.09
2019-05-23T04:14:03.715Z,1013.07
2019-05-23T04:15:03.791Z,1013.02
2019-05-23T04:16:03.737Z,1013.05
2019-05-23T04:17:03.736Z,1013.05
2019-05-23T04:18:03.745Z,1013.04
2019-05-23T04:19:03.749Z,1013.05
2019-05-23T04:20:03.749Z,1013.05
2019-05-23T04:21:03.761Z,1013.04
2019-05-23T04:22:03.757Z,1013.07
2019-05-23T04:23:03.771Z,1013.06
2019-05-23T04:24:03.780Z,1013.07
2019-05-23T04:25:03.787Z,1013.05
2019-05-23T04:26:03.789Z,1013.02
2019-05-23T04:27:03.806Z,1013.03
2019-05-23T04:28:03.808Z,1013.00
2019-05-23T04:29:03.827Z,1012.96
2019-05-23T04:30:03.824Z,1012.96
2019-05-23T04:31:03.820Z,1012.99
2019-05-23T04:32:08.528Z,1012.97
2019-05-23T04:33:03.838Z,1012.94
2019-05-23T04:34:03.858Z,1012.98
2019-05-23T04:35:03.849Z,1012.95
2019-05-23T04:36:03.867Z,1012.97
2019-05-23T04:37:03.872Z,1012.99
2019-05-23T04:38:03.951Z,1012.96
2019-05-23T04:39:03.895Z,1012.99
2019-05-23T04:40:03.893Z,1013.01
2019-05-23T04:41:03.896Z,1013.00
2019-05-23T04:42:03.907Z,1012.99
2019-05-23T04:43:03.914Z,1013.05
2019-05-23T04:44:03.917Z,1013.01
2019-05-23T04:45:03.916Z,1013.01
2019-05-23T04:46:03.931Z,1013.01
2019-05-23T04:47:03.937Z,1012.97
2019-05-23T04:48:03.942Z,1012.99
2019-05-23T04:49:03.953Z,1012.98
2019-05-23T04:50:03.965Z,1013.00
2019-05-23T04:51:03.972Z,1013.00
2019-05-23T04:52:03.978Z,1012.99
2019-05-23T04:53:03.974Z,1013.02
2019-05-23T04:54:03.990Z,1013.07
2019-05-23T04:55:04.000Z,1013.02
2019-05-23T04:56:04.004Z,1013.02
2019-05-23T04:57:04.019Z,1013.04
2019-05-23T04:58:05.059Z,1013.03
2019-05-23T04:59:04.026Z,1013.04
2019-05-23T05:00:04.031Z,1013.05
2019-05-23T05:01:04.037Z,1013.04
2019-05-23T05:02:04.046Z,1013.06
2019-05-23T05:03:04.054Z,1013.06
2019-05-23T05:04:04.060Z,1013.06
2019-05-23T05:05:04.067Z,1013.05
2019-05-23T05:06:04.097Z,1013.07
2019-05-23T05:07:04.082Z,1013.03
2019-05-23T05:08:04.203Z,1013.06
2019-05-23T05:09:04.094Z,1013.04
2019-05-23T05:10:04.103Z,1013.10
2019-05-23T05:11:04.112Z,1013.07
2019-05-23T05:12:04.119Z,1013.11
2019-05-23T05:13:04.123Z,1013.13
2019-05-23T05:14:04.129Z,1013.14
2019-05-23T05:15:04.144Z,1013.17
2019-05-23T05:16:04.152Z,1013.16
2019-05-23T05:17:04.147Z,1013.17
2019-05-23T05:18:04.160Z,1013.16
2019-05-23T05:19:04.173Z,1013.16
2019-05-23T05:20:04.174Z,1013.15
2019-05-23T05:21:04.184Z,1013.13
2019-05-23T05:22:04.230Z,1013.22
2019-05-23T05:23:04.195Z,1013.18
2019-05-23T05:24:04.206Z,1013.20
2019-05-23T05:25:04.213Z,1013.22
2019-05-23T05:26:04.215Z,1013.17
2019-05-23T05:27:04.242Z,1013.18
2019-05-23T05:28:04.233Z,1013.20
2019-05-23T05:29:04.284Z,1013.18
2019-05-23T05:30:04.242Z,1013.21
2019-05-23T05:31:04.274Z,1013.20
2019-05-23T05:32:04.333Z,1013.17
2019-05-23T05:33:04.274Z,1013.20
2019-05-23T05:34:04.281Z,1013.21
2019-05-23T05:35:04.291Z,1013.26
2019-05-23T05:36:04.334Z,1013.23
2019-05-23T05:37:04.304Z,1013.24
2019-05-23T05:38:04.317Z,1013.21
2019-05-23T05:39:04.384Z,1013.25
2019-05-23T05:40:04.327Z,1013.26
2019-05-23T05:41:04.344Z,1013.25
2019-05-23T05:42:04.343Z,1013.23
2019-05-23T05:43:04.356Z,1013.24
2019-05-23T05:44:04.474Z,1013.27
2019-05-23T05:45:04.537Z,1013.27
2019-05-23T05:46:04.387Z,1013.28
2019-05-23T05:47:04.383Z,1013.28
2019-05-23T05:48:04.390Z,1013.30
2019-05-23T05:49:04.434Z,1013.32
2019-05-23T05:50:04.409Z,1013.32
2019-05-23T05:51:04.568Z,1013.33
2019-05-23T05:52:04.408Z,1013.39
2019-05-23T05:53:04.429Z,1013.40
2019-05-23T05:54:04.455Z,1013.39
2019-05-23T05:55:04.442Z,1013.41
2019-05-23T05:56:04.635Z,1013.42
2019-05-23T05:57:04.537Z,1013.46
2019-05-23T05:58:04.474Z,1013.46
2019-05-23T05:59:04.497Z,1013.45
2019-05-23T06:00:04.488Z,1013.47
2019-05-23T06:01:04.790Z,1013.47
2019-05-23T06:02:04.501Z,1013.49
2019-05-23T06:03:05.753Z,1013.46
2019-05-23T06:04:04.526Z,1013.47
2019-05-23T06:06:04.784Z,1013.47
2019-05-23T06:07:04.535Z,1013.46
2019-05-23T06:08:04.559Z,1013.46
2019-05-23T06:09:04.551Z,1013.45
2019-05-23T06:10:04.583Z,1013.45
2019-05-23T06:11:04.574Z,1013.48
2019-05-23T06:12:04.581Z,1013.43
2019-05-23T06:13:04.582Z,1013.49
2019-05-23T06:14:04.596Z,1013.45
2019-05-23T06:15:04.664Z,1013.48
2019-05-23T06:16:04.623Z,1013.61
2019-05-23T06:17:04.612Z,1013.59
2019-05-23T06:19:04.632Z,1013.71
2019-05-23T06:20:04.656Z,1013.76
2019-05-23T06:21:04.655Z,1013.73
2019-05-23T06:22:04.692Z,1013.75
2019-05-23T06:23:04.691Z,1013.80
2019-05-23T06:24:04.679Z,1013.83
2019-05-23T06:25:04.806Z,1013.89
2019-05-23T06:26:04.703Z,1013.90
2019-05-23T06:27:04.711Z,1013.91
2019-05-23T06:28:04.739Z,1013.94
2019-05-23T06:29:04.750Z,1013.97
2019-05-23T06:30:04.748Z,1013.99
2019-05-23T06:31:04.775Z,1014.01
2019-05-23T06:32:04.774Z,1014.08
2019-05-23T06:33:21.971Z,1014.07
2019-05-23T06:34:04.787Z,1014.09
2019-05-23T06:35:04.813Z,1014.05
2019-05-23T06:36:04.827Z,1014.08
2019-05-23T06:37:04.828Z,1014.05
2019-05-23T06:38:04.855Z,1014.07
2019-05-23T06:39:04.870Z,1014.07
2019-05-23T06:40:04.867Z,1014.09
2019-05-23T06:42:04.898Z,1014.18
2019-05-23T06:43:04.970Z,1014.20
2019-05-23T06:44:04.925Z,1014.28
2019-05-23T06:45:05.070Z,1014.25
2019-05-23T06:46:04.953Z,1014.22
2019-05-23T06:47:04.969Z,1014.22
2019-05-23T06:48:04.978Z,1014.28
2019-05-23T06:49:04.991Z,1014.30
2019-05-23T06:50:05.011Z,1014.38
2019-05-23T06:51:05.425Z,1014.41
2019-05-23T06:52:05.037Z,1014.46
2019-05-23T06:53:05.118Z,1014.47
2019-05-23T06:54:05.064Z,1014.45
2019-05-23T06:55:05.201Z,1014.37
2019-05-23T06:56:05.096Z,1014.30
2019-05-23T06:57:05.115Z,1014.24
2019-05-23T06:58:05.133Z,1014.47
2019-05-23T06:59:05.143Z,1014.61
2019-05-23T07:00:05.164Z,1014.58
2019-05-23T07:01:05.172Z,1014.56
2019-05-23T07:02:05.183Z,1014.54
2019-05-23T07:03:05.202Z,1014.55
2019-05-23T07:04:05.208Z,1014.56
2019-05-23T07:05:05.350Z,1014.57
2019-05-23T07:06:05.237Z,1014.56
2019-05-23T07:07:05.251Z,1014.49
2019-05-23T07:08:05.261Z,1014.48
2019-05-23T07:09:05.280Z,1014.47
2019-05-23T07:10:05.299Z,1014.49
2019-05-23T07:11:05.317Z,1014.51
2019-05-23T07:12:05.330Z,1014.51
2019-05-23T07:13:05.350Z,1014.54
2019-05-23T07:14:05.360Z,1014.57
2019-05-23T07:15:05.451Z,1014.51
2019-05-23T07:16:05.396Z,1014.52
2019-05-23T07:17:05.401Z,1014.55
2019-05-23T07:18:05.422Z,1014.49
2019-05-23T07:19:05.431Z,1014.48
2019-05-23T07:20:05.448Z,1014.46
2019-05-23T07:21:05.476Z,1014.45
2019-05-23T07:22:05.482Z,1014.43
2019-05-23T07:23:05.512Z,1014.43
2019-05-23T07:24:05.513Z,1014.43
2019-05-23T07:25:05.542Z,1014.41
2019-05-23T07:26:05.559Z,1014.39
2019-05-23T07:27:05.567Z,1014.42
2019-05-23T07:28:05.580Z,1014.43
2019-05-23T07:29:05.579Z,1014.43
2019-05-23T07:30:05.632Z,1014.46
2019-05-23T07:31:05.620Z,1014.46
2019-05-23T07:32:05.667Z,1014.48
2019-05-23T07:33:05.699Z,1014.53
2019-05-23T07:34:05.684Z,1014.50
2019-05-23T07:35:05.683Z,1014.56
2019-05-23T07:36:05.702Z,1014.63
2019-05-23T07:37:05.747Z,1014.64
2019-05-23T07:38:05.740Z,1014.71
2019-05-23T07:39:05.752Z,1014.78
2019-05-23T07:40:05.759Z,1014.79
2019-05-23T07:41:05.774Z,1014.76
2019-05-23T07:42:05.797Z,1014.85
2019-05-23T07:43:05.815Z,1014.88
2019-05-23T07:44:05.860Z,1014.89
2019-05-23T07:45:05.859Z,1014.90
2019-05-23T07:46:05.871Z,1014.91
2019-05-23T07:47:05.869Z,1014.94
2019-05-23T07:48:05.921Z,1014.95
2019-05-23T07:49:05.908Z,1014.96
2019-05-23T07:50:05.943Z,1014.98
2019-05-23T07:51:05.936Z,1015.04
2019-05-23T07:52:05.953Z,1015.12
2019-05-23T07:53:05.981Z,1015.12
2019-05-23T07:54:06.010Z,1015.21
2019-05-23T07:55:06.019Z,1015.25
2019-05-23T07:56:06.021Z,1015.24
2019-05-23T07:57:06.084Z,1015.22
2019-05-23T07:58:06.060Z,1015.19
2019-05-23T07:59:06.072Z,1015.10
2019-05-23T08:00:06.111Z,1015.06
2019-05-23T08:01:06.110Z,1015.08
2019-05-23T08:02:06.121Z,1015.06
2019-05-23T08:03:06.138Z,1015.03
2019-05-23T08:04:20.697Z,1015.13
2019-05-23T08:05:06.182Z,1015.22
2019-05-23T08:06:06.232Z,1015.36
2019-05-23T08:07:06.274Z,1015.50
2019-05-23T08:08:06.241Z,1015.73
2019-05-23T08:09:06.247Z,1015.85
2019-05-23T08:10:06.271Z,1016.19
2019-05-23T08:11:06.268Z,1016.67
2019-05-23T08:12:06.288Z,1017.20
2019-05-23T08:13:06.303Z,1017.65
2019-05-23T08:14:06.325Z,1018.01
2019-05-23T08:15:06.347Z,1018.45
2019-05-23T08:16:06.353Z,1018.63
2019-05-23T08:17:06.374Z,1019.19
2019-05-23T08:18:06.390Z,1020.06
2019-05-23T08:19:06.405Z,1020.85
2019-05-23T08:20:06.431Z,1021.58
2019-05-23T08:21:06.437Z,1022.41
2019-05-23T08:22:06.526Z,1023.17
2019-05-23T08:23:06.473Z,1023.45
2019-05-23T08:24:06.492Z,1024.78
2019-05-23T08:25:06.505Z,1025.74
2019-05-23T08:26:06.525Z,1025.94
2019-05-23T08:27:06.551Z,1026.69
2019-05-23T08:28:06.561Z,1027.55
2019-05-23T08:29:24.912Z,1027.69
2019-05-23T08:30:06.588Z,1029.36
2019-05-23T08:31:06.615Z,1030.34
2019-05-23T08:32:06.664Z,1032.76
2019-05-23T08:33:06.814Z,1035.60
2019-05-23T08:34:06.664Z,1034.88
2019-05-23T08:35:06.675Z,1034.69
2019-05-23T08:36:06.696Z,1033.75
2019-05-23T08:37:06.712Z,1034.25
2019-05-23T08:38:06.737Z,1035.57
2019-05-23T08:39:06.748Z,1035.19
2019-05-23T08:40:06.768Z,1034.84
2019-05-23T08:41:06.835Z,1035.39
2019-05-23T08:42:06.811Z,1034.22
2019-05-23T08:43:06.819Z,1033.20
2019-05-23T08:44:06.841Z,1034.31
2019-05-23T08:45:06.859Z,1035.67
2019-05-23T08:46:06.899Z,1033.18
2019-05-23T08:47:06.897Z,1030.63
2019-05-23T08:48:06.903Z,1035.60
2019-05-23T08:49:06.933Z,1036.92
2019-05-23T08:50:06.941Z,1036.38
2019-05-23T08:51:06.966Z,1038.03
2019-05-23T08:52:06.972Z,1037.64
2019-05-23T08:53:06.988Z,1034.65
2019-05-23T08:54:07.012Z,1034.73
2019-05-23T08:55:07.024Z,1016.50
2019-05-23T08:56:17.975Z,1030.63
2019-05-23T08:57:07.058Z,1037.97
2019-05-23T08:58:07.087Z,1040.71
2019-05-23T08:59:07.083Z,1041.93
2019-05-23T09:00:07.121Z,1041.30
2019-05-23T09:01:07.139Z,1039.87
2019-05-23T09:02:07.157Z,1040.28
2019-05-23T09:03:07.160Z,1042.22
2019-05-23T09:04:07.183Z,1041.65
2019-05-23T09:05:07.225Z,1039.42
2019-05-23T09:06:07.211Z,1039.51
2019-05-23T09:07:07.246Z,1037.72
2019-05-23T09:08:07.252Z,1037.59
2019-05-23T09:09:27.437Z,1039.50
2019-05-23T09:10:07.296Z,1039.42
2019-05-23T09:11:07.297Z,1041.10
2019-05-23T09:12:07.327Z,1040.43
2019-05-23T09:13:07.339Z,1040.37
2019-05-23T09:14:07.365Z,1038.56
2019-05-23T09:15:10.033Z,1037.93
2019-05-23T09:16:07.409Z,1041.32
2019-05-23T09:17:07.459Z,1041.05
2019-05-23T09:18:07.425Z,1039.57
2019-05-23T09:19:07.456Z,1039.93
2019-05-23T09:20:07.485Z,1039.61
2019-05-23T09:21:07.472Z,1038.79
2019-05-23T09:22:07.508Z,1036.53
2019-05-23T09:23:07.527Z,1035.63
2019-05-23T09:24:07.530Z,1036.49
2019-05-23T09:25:07.556Z,1038.19
2019-05-23T09:26:07.568Z,1039.90
2019-05-23T09:27:07.592Z,1036.43
2019-05-23T09:28:07.611Z,1033.79
2019-05-23T09:29:07.678Z,1034.54
2019-05-23T09:30:07.638Z,1035.00
2019-05-23T09:31:07.754Z,1033.72
2019-05-23T09:32:07.687Z,1034.69
2019-05-23T09:33:07.700Z,1035.43
2019-05-23T09:34:07.715Z,1035.04
2019-05-23T09:35:20.287Z,1033.98
2019-05-23T09:36:07.744Z,1033.11
2019-05-23T09:37:07.766Z,1032.68
2019-05-23T09:38:07.794Z,1031.32
2019-05-23T09:39:07.802Z,1031.04
2019-05-23T09:40:07.821Z,1030.43
2019-05-23T09:41:07.842Z,1030.58
2019-05-23T09:42:11.755Z,1030.59
2019-05-23T09:43:07.921Z,1031.45
2019-05-23T09:44:07.905Z,1030.74
2019-05-23T09:45:07.922Z,1029.80
2019-05-23T09:46:07.934Z,1029.18
2019-05-23T09:47:07.955Z,1030.07
2019-05-23T09:48:07.968Z,1029.96
2019-05-23T09:49:11.130Z,1029.30
2019-05-23T09:50:08.008Z,1028.17
2019-05-23T09:51:08.023Z,1028.11
2019-05-23T09:52:08.281Z,1026.80
2019-05-23T09:53:08.056Z,1027.02
2019-05-23T09:54:08.076Z,1027.48
2019-05-23T09:55:08.089Z,1028.35
2019-05-23T09:56:08.199Z,1028.33
2019-05-23T09:57:08.135Z,1028.00
2019-05-23T09:58:08.151Z,1027.07
2019-05-23T09:59:08.198Z,1024.30
2019-05-23T10:00:08.192Z,1023.55
2019-05-23T10:01:08.200Z,1023.62
2019-05-23T10:02:08.240Z,1025.20
2019-05-23T10:03:08.226Z,1025.97
2019-05-23T10:04:08.260Z,1025.67
2019-05-23T10:05:08.278Z,1025.17
2019-05-23T10:06:08.301Z,1024.87
2019-05-23T10:07:08.321Z,1024.97
2019-05-23T10:08:08.331Z,1025.01
2019-05-23T10:09:08.349Z,1024.59
2019-05-23T10:10:08.361Z,1024.16
2019-05-23T10:11:08.384Z,1023.55
2019-05-23T10:12:08.402Z,1023.28
2019-05-23T10:13:08.560Z,1022.82
2019-05-23T10:14:08.435Z,1023.20
2019-05-23T10:15:08.461Z,1022.80
2019-05-23T10:16:08.509Z,1022.39
2019-05-23T10:17:08.489Z,1022.30
2019-05-23T10:18:08.574Z,1022.64
2019-05-23T10:19:08.525Z,1023.31
2019-05-23T10:20:08.547Z,1023.01
2019-05-23T10:21:08.563Z,1021.96
2019-05-23T10:22:08.589Z,1015.20
2019-05-23T10:23:08.593Z,1014.01
2019-05-23T10:24:08.619Z,1019.95
2019-05-23T10:25:08.632Z,1021.27
2019-05-23T10:26:08.659Z,1020.91
2019-05-23T10:27:08.674Z,1014.05
2019-05-23T10:28:08.686Z,1013.72
2019-05-23T10:29:08.705Z,1021.88
2019-05-23T10:30:08.725Z,1021.72
2019-05-23T10:31:08.734Z,1021.79
2019-05-23T10:32:08.756Z,1021.80
2019-05-23T10:33:12.150Z,1021.92
2019-05-23T10:34:08.798Z,1021.28
2019-05-23T10:35:08.820Z,1021.31
2019-05-23T10:36:08.830Z,1021.23
2019-05-23T10:37:08.839Z,1021.14
2019-05-23T10:38:08.871Z,1020.92
2019-05-23T10:39:08.871Z,1020.84
2019-05-23T10:40:08.892Z,1020.36
2019-05-23T10:41:08.902Z,1020.10
2019-05-23T10:42:08.921Z,1018.24
2019-05-23T10:43:08.942Z,1019.94
2019-05-23T10:44:08.986Z,1019.59
2019-05-23T10:45:08.996Z,1019.51
2019-05-23T10:46:08.999Z,1019.65
2019-05-23T10:47:09.017Z,1019.66
2019-05-23T10:48:09.036Z,1019.41
2019-05-23T10:49:09.047Z,1019.44
2019-05-23T10:50:10.068Z,1019.05
2019-05-23T10:51:09.091Z,1018.68
2019-05-23T10:52:09.137Z,1018.30
2019-05-23T10:53:09.123Z,1017.58
2019-05-23T10:54:09.137Z,1017.07
2019-05-23T10:55:09.174Z,1016.65
2019-05-23T10:56:09.175Z,1016.23
2019-05-23T10:57:09.198Z,1015.78
2019-05-23T10:58:09.351Z,1015.37
2019-05-23T10:59:09.235Z,1015.04
2019-05-23T11:00:09.252Z,1014.77
2019-05-23T11:01:09.265Z,1014.59
2019-05-23T11:02:09.298Z,1014.40
2019-05-23T11:03:09.300Z,1014.40
2019-05-23T11:04:09.325Z,1014.09
2019-05-23T11:05:13.368Z,1014.28
2019-05-23T11:06:16.292Z,1014.12
2019-05-23T11:07:09.378Z,1014.01
2019-05-23T11:08:09.406Z,1013.99
2019-05-23T11:09:09.425Z,1014.02
2019-05-23T11:10:09.432Z,1014.00
2019-05-23T11:11:14.029Z,1013.89
2019-05-23T11:12:09.496Z,1013.91
2019-05-23T11:13:09.477Z,1013.78
2019-05-23T11:14:09.713Z,1013.80
2019-05-23T11:15:09.524Z,1013.77
2019-05-23T11:16:09.541Z,1013.31
2019-05-23T11:17:09.551Z,1013.39
2019-05-23T11:18:09.581Z,1013.28
2019-05-23T11:19:09.592Z,1013.42
2019-05-23T11:20:09.610Z,1013.71
2019-05-23T11:21:09.618Z,1013.49
2019-05-23T11:22:09.679Z,1013.12
2019-05-23T11:23:09.653Z,1013.13
2019-05-23T11:24:09.677Z,1013.61
2019-05-23T11:25:09.689Z,1013.64
2019-05-23T11:26:09.711Z,1013.44
2019-05-23T11:27:09.729Z,1013.39
2019-05-23T11:28:09.744Z,1013.32
2019-05-23T11:29:09.782Z,1013.37
2019-05-23T11:30:09.776Z,1013.28
2019-05-23T11:31:09.798Z,1013.24
2019-05-23T11:32:09.810Z,1013.24
2019-05-23T11:33:09.838Z,1013.24
2019-05-23T11:34:09.852Z,1013.26
2019-05-23T11:35:09.866Z,1013.18
2019-05-23T11:36:09.886Z,1013.14
2019-05-23T11:37:09.915Z,1013.11
2019-05-23T11:38:09.928Z,1013.15
2019-05-23T11:39:09.968Z,1013.11
2019-05-23T11:40:09.997Z,1013.06
2019-05-23T11:41:09.962Z,1013.06
2019-05-23T11:42:09.998Z,1013.10
2019-05-23T11:43:10.015Z,1012.96
2019-05-23T11:44:10.037Z,1013.01
2019-05-23T11:45:10.050Z,1013.03
2019-05-23T11:46:10.066Z,1013.04
2019-05-23T11:47:10.087Z,1013.04
2019-05-23T11:48:10.107Z,1013.02
2019-05-23T11:49:10.132Z,1013.04
2019-05-23T11:50:10.256Z,1012.96
2019-05-23T11:51:10.168Z,1012.94
2019-05-23T11:52:10.198Z,1012.91
2019-05-23T11:53:10.193Z,1012.90
2019-05-23T11:54:10.411Z,1012.88
2019-05-23T11:55:10.233Z,1012.82
2019-05-23T11:56:10.269Z,1012.83
2019-05-23T11:57:10.393Z,1012.83
2019-05-23T11:58:10.310Z,1012.87
2019-05-23T11:59:10.303Z,1012.84
2019-05-23T12:00:10.406Z,1012.80
2019-05-23T12:01:10.893Z,1012.76
2019-05-23T12:02:10.356Z,1012.78
2019-05-23T12:03:10.393Z,1012.79
2019-05-23T12:04:10.399Z,1012.83
2019-05-23T12:05:10.417Z,1012.87
2019-05-23T12:06:10.434Z,1012.85
2019-05-23T12:07:10.461Z,1012.65
2019-05-23T12:08:10.485Z,1012.62
2019-05-23T12:09:10.515Z,1012.56